Susaki Maru — JD3829 — position and weather

sailwx.info

Track history (hours):
 
Tides and Currents Weather Stations Pressure Air Temp Water Temp Dewpoint Dewpoint Depression Visibility Wind Speed Wind Dir Waves Ship Positions

Susaki Maru

Last reported at 2018-Jan-19 13:58 UTC. Time now 2018-Jan-19 15:23 UTC.
Position N 34°19' E 133°46'.

Length 79 m; draft 3.5 m.

Type: Tanker. MMSI: 431006292.

Date/timePositionNaut miles runAvg speedWind from/ knotsBaromVisibWave heightAir tempDewpointWater temp
2018-Jan-19 13:58N 34°19' E 133°46'0 0.0
2018-Jan-19 13:30N 34°19' E 133°46'0 0.0
2018-Jan-19 13:00N 34°19' E 133°46'15 7.5
2018-Jan-19 11:02N 34°27' E 134°01'511.1
2018-Jan-19 10:37N 34°31' E 134°05'212.3
2018-Jan-19 10:25N 34°32' E 134°07'1111.6
2018-Jan-19 09:29N 34°39' E 134°17'510.9
2018-Jan-19 08:59N 34°43' E 134°22'2 4.0
2018-Jan-19 08:29N 34°45' E 134°22'0 0.0
2018-Jan-19 08:00N 34°45' E 134°22'0 0.0
2018-Jan-19 07:30N 34°45' E 134°22'0 0.0
2018-Jan-19 06:51N 34°45' E 134°22'0 0.0
2018-Jan-19 06:30N 34°45' E 134°22'3 3.2
2018-Jan-19 05:38N 34°42' E 134°23'0 0.2
2018-Jan-19 04:58N 34°42' E 134°23'0 0.0
2018-Jan-19 04:29N 34°42' E 134°23'0 0.0
2018-Jan-19 03:46N 34°42' E 134°23'0 0.7
2018-Jan-19 03:30N 34°42' E 134°23'3 1.1
2018-Jan-19 00:49N 34°45' E 134°22'3 6.5
2018-Jan-19 00:22N 34°42' E 134°23'0 0.3
2018-Jan-18 23:25N 34°42' E 134°23'0 0.1
2018-Jan-18 23:00N 34°42' E 134°23'0 0.0
2018-Jan-18 21:58N 34°42' E 134°23'0 0.0
2018-Jan-18 21:30N 34°42' E 134°23'0 0.0
2018-Jan-18 21:00N 34°42' E 134°23'0 0.0
2018-Jan-18 20:16N 34°42' E 134°23'0 0.0
2018-Jan-18 17:55N 34°42' E 134°23'0 0.0
2018-Jan-18 17:30N 34°42' E 134°23'0 0.0
2018-Jan-18 17:00N 34°42' E 134°23'0 0.0
2018-Jan-18 16:30N 34°42' E 134°23'7 6.4
2018-Jan-18 15:23N 34°35' E 134°25'411.8
2018-Jan-18 15:00N 34°31' E 134°28'611.8
2018-Jan-18 14:30N 34°26' E 134°31'611.7
2018-Jan-18 14:01N 34°21' E 134°35'711.6
2018-Jan-18 13:23N 34°14' E 134°39'911.6
2018-Jan-18 12:37N 34°08' E 134°46'111.4
2018-Jan-18 12:29N 34°06' E 134°47'611.6
2018-Jan-18 12:00N 34°02' E 134°51'611.4
2018-Jan-18 11:30N 33°58' E 134°56'611.3
2018-Jan-18 11:00N 33°54' E 135°00'611.1
2018-Jan-18 10:27N 33°49' E 135°05'  
2018-Jan-12 12:05N 34°45' E 134°22'3 5.8
2018-Jan-12 11:36N 34°42' E 134°23'0 5.3
2018-Jan-12 11:30N 34°42' E 134°24'611.3
2018-Jan-12 11:00N 34°42' E 134°31'611.5
2018-Jan-12 10:30N 34°41' E 134°38'611.5
2018-Jan-12 10:00N 34°40' E 134°44'611.8
2018-Jan-12 09:30N 34°38' E 134°51'612.2
2018-Jan-12 09:00N 34°38' E 134°59'611.8
2018-Jan-12 08:30N 34°36' E 135°06'611.7
2018-Jan-12 08:00N 34°37' E 135°13'611.8
2018-Jan-12 07:30N 34°38' E 135°20'611.1
2018-Jan-12 07:00N 34°39' E 135°27'1 2.2
2018-Jan-12 06:30N 34°38' E 135°28'0 0.4
2018-Jan-12 05:58N 34°38' E 135°28'0 0.0
2018-Jan-12 05:28N 34°38' E 135°28'0 0.0
2018-Jan-12 04:55N 34°38' E 135°28'0 0.0
2018-Jan-12 04:22N 34°38' E 135°28'0 0.0
2018-Jan-12 03:58N 34°38' E 135°28'0 0.0
2018-Jan-12 03:28N 34°38' E 135°28'0 0.0
2018-Jan-12 02:58N 34°38' E 135°28'0 0.0
2018-Jan-12 02:28N 34°38' E 135°28'0 0.0
2018-Jan-12 01:58N 34°38' E 135°28'0 0.0
2018-Jan-12 01:28N 34°38' E 135°28'0 0.0
2018-Jan-12 00:58N 34°38' E 135°28'0 0.0
2018-Jan-12 00:28N 34°38' E 135°28'0 0.0
2018-Jan-11 23:58N 34°38' E 135°28'0 0.0
2018-Jan-11 23:28N 34°38' E 135°28'0 0.0
2018-Jan-11 22:52N 34°38' E 135°28'0 0.0
2018-Jan-11 22:30N 34°38' E 135°28'1 1.7
2018-Jan-11 22:00N 34°38' E 135°27'4 7.7
2018-Jan-11 21:30N 34°38' E 135°22'3 5.4
2018-Jan-11 20:55N 34°36' E 135°19'0 0.1
2018-Jan-11 20:28N 34°36' E 135°19'0 0.1
2018-Jan-11 19:58N 34°36' E 135°19'0 0.1
2018-Jan-11 19:25N 34°36' E 135°19'0 0.1
2018-Jan-11 18:55N 34°36' E 135°19'0 0.1
2018-Jan-11 18:28N 34°36' E 135°19'0 0.0
2018-Jan-11 17:58N 34°36' E 135°19'0 0.1
2018-Jan-11 17:28N 34°36' E 135°19'0 0.0
2018-Jan-11 16:55N 34°36' E 135°19'0 0.1
2018-Jan-11 16:25N 34°36' E 135°19'0 0.0
2018-Jan-11 15:55N 34°36' E 135°19'0 0.1
2018-Jan-11 15:25N 34°36' E 135°19'0 0.0
2018-Jan-11 14:58N 34°36' E 135°19'0 0.0
2018-Jan-11 14:28N 34°36' E 135°19'0 0.1
2018-Jan-11 13:55N 34°36' E 135°19'1 1.2
2018-Jan-11 13:30N 34°36' E 135°18'611.4
2018-Jan-11 13:00N 34°35' E 135°12'612.3
2018-Jan-11 12:30N 34°35' E 135°04'713.1
2018-Jan-11 12:00N 34°37' E 134°56'713.2
2018-Jan-11 11:30N 34°38' E 134°49'612.0
2018-Jan-11 11:00N 34°40' E 134°42'611.7
2018-Jan-11 10:30N 34°42' E 134°35'611.7
2018-Jan-11 10:00N 34°42' E 134°28'510.1
2018-Jan-11 09:30N 34°44' E 134°22'1 0.6
2018-Jan-11 07:58N 34°45' E 134°22'0 0.7
2018-Jan-11 07:27N 34°45' E 134°22'0 0.0
2018-Jan-11 06:22N 34°45' E 134°22'0 0.0
2018-Jan-11 05:52N 34°45' E 134°22'0 0.0
2018-Jan-11 03:10N 34°45' E 134°22'0 0.0
2018-Jan-11 01:43N 34°45' E 134°22'1 1.9
2018-Jan-11 01:24N 34°44' E 134°22'3 7.9
2018-Jan-11 00:58N 34°41' E 134°21'1312.8
2018-Jan-10 23:57N 34°32' E 134°09'9 0.3
2018-Jan-09 21:11N 34°27' E 134°01'4 9.2
2018-Jan-09 20:43N 34°30' E 134°04'410.0
2018-Jan-09 20:21N 34°32' E 134°08'1110.6
2018-Jan-09 19:21N 34°39' E 134°18'410.5
2018-Jan-09 19:00N 34°41' E 134°21'4 7.3
2018-Jan-09 18:30N 34°45' E 134°22'  
Track history (hours):
 
Tides and Currents Weather Stations Pressure Air Temp Water Temp Dewpoint Dewpoint Depression Visibility Wind Speed Wind Dir Waves Ship Positions

Susaki Maru

Last reported at 2018-Jan-19 13:58 UTC. Time now 2018-Jan-19 15:23 UTC.
Position N 34°19' E 133°46'.

Length 79 m; draft 3.5 m.

Type: Tanker. MMSI: 431006292.

Date/timePositionNaut miles runAvg speedWind from/ knotsBaromVisibWave heightAir tempDewpointWater temp
2018-Jan-19 13:58N 34°19' E 133°46'0 0.0
2018-Jan-19 13:30N 34°19' E 133°46'0 0.0
2018-Jan-19 13:00N 34°19' E 133°46'15 7.5
2018-Jan-19 11:02N 34°27' E 134°01'511.1
2018-Jan-19 10:37N 34°31' E 134°05'212.3
2018-Jan-19 10:25N 34°32' E 134°07'1111.6
2018-Jan-19 09:29N 34°39' E 134°17'510.9
2018-Jan-19 08:59N 34°43' E 134°22'2 4.0
2018-Jan-19 08:29N 34°45' E 134°22'0 0.0
2018-Jan-19 08:00N 34°45' E 134°22'0 0.0
2018-Jan-19 07:30N 34°45' E 134°22'0 0.0
2018-Jan-19 06:51N 34°45' E 134°22'0 0.0
2018-Jan-19 06:30N 34°45' E 134°22'3 3.2
2018-Jan-19 05:38N 34°42' E 134°23'0 0.2
2018-Jan-19 04:58N 34°42' E 134°23'0 0.0
2018-Jan-19 04:29N 34°42' E 134°23'0 0.0
2018-Jan-19 03:46N 34°42' E 134°23'0 0.7
2018-Jan-19 03:30N 34°42' E 134°23'3 1.1
2018-Jan-19 00:49N 34°45' E 134°22'3 6.5
2018-Jan-19 00:22N 34°42' E 134°23'0 0.3
2018-Jan-18 23:25N 34°42' E 134°23'0 0.1
2018-Jan-18 23:00N 34°42' E 134°23'0 0.0
2018-Jan-18 21:58N 34°42' E 134°23'0 0.0
2018-Jan-18 21:30N 34°42' E 134°23'0 0.0
2018-Jan-18 21:00N 34°42' E 134°23'0 0.0
2018-Jan-18 20:16N 34°42' E 134°23'0 0.0
2018-Jan-18 17:55N 34°42' E 134°23'0 0.0
2018-Jan-18 17:30N 34°42' E 134°23'0 0.0
2018-Jan-18 17:00N 34°42' E 134°23'0 0.0
2018-Jan-18 16:30N 34°42' E 134°23'7 6.4
2018-Jan-18 15:23N 34°35' E 134°25'411.8
2018-Jan-18 15:00N 34°31' E 134°28'611.8
2018-Jan-18 14:30N 34°26' E 134°31'611.7
2018-Jan-18 14:01N 34°21' E 134°35'711.6
2018-Jan-18 13:23N 34°14' E 134°39'911.6
2018-Jan-18 12:37N 34°08' E 134°46'111.4
2018-Jan-18 12:29N 34°06' E 134°47'611.6
2018-Jan-18 12:00N 34°02' E 134°51'611.4
2018-Jan-18 11:30N 33°58' E 134°56'611.3
2018-Jan-18 11:00N 33°54' E 135°00'611.1
2018-Jan-18 10:27N 33°49' E 135°05'  
2018-Jan-12 12:05N 34°45' E 134°22'3 5.8
2018-Jan-12 11:36N 34°42' E 134°23'0 5.3
2018-Jan-12 11:30N 34°42' E 134°24'611.3
2018-Jan-12 11:00N 34°42' E 134°31'611.5
2018-Jan-12 10:30N 34°41' E 134°38'611.5
2018-Jan-12 10:00N 34°40' E 134°44'611.8
2018-Jan-12 09:30N 34°38' E 134°51'612.2
2018-Jan-12 09:00N 34°38' E 134°59'611.8
2018-Jan-12 08:30N 34°36' E 135°06'611.7
2018-Jan-12 08:00N 34°37' E 135°13'611.8
2018-Jan-12 07:30N 34°38' E 135°20'611.1
2018-Jan-12 07:00N 34°39' E 135°27'1 2.2
2018-Jan-12 06:30N 34°38' E 135°28'0 0.4
2018-Jan-12 05:58N 34°38' E 135°28'0 0.0
2018-Jan-12 05:28N 34°38' E 135°28'0 0.0
2018-Jan-12 04:55N 34°38' E 135°28'0 0.0
2018-Jan-12 04:22N 34°38' E 135°28'0 0.0
2018-Jan-12 03:58N 34°38' E 135°28'0 0.0
2018-Jan-12 03:28N 34°38' E 135°28'0 0.0
2018-Jan-12 02:58N 34°38' E 135°28'0 0.0
2018-Jan-12 02:28N 34°38' E 135°28'0 0.0
2018-Jan-12 01:58N 34°38' E 135°28'0 0.0
2018-Jan-12 01:28N 34°38' E 135°28'0 0.0
2018-Jan-12 00:58N 34°38' E 135°28'0 0.0
2018-Jan-12 00:28N 34°38' E 135°28'0 0.0
2018-Jan-11 23:58N 34°38' E 135°28'0 0.0
2018-Jan-11 23:28N 34°38' E 135°28'0 0.0
2018-Jan-11 22:52N 34°38' E 135°28'0 0.0
2018-Jan-11 22:30N 34°38' E 135°28'1 1.7
2018-Jan-11 22:00N 34°38' E 135°27'4 7.7
2018-Jan-11 21:30N 34°38' E 135°22'3 5.4
2018-Jan-11 20:55N 34°36' E 135°19'0 0.1
2018-Jan-11 20:28N 34°36' E 135°19'0 0.1
2018-Jan-11 19:58N 34°36' E 135°19'0 0.1
2018-Jan-11 19:25N 34°36' E 135°19'0 0.1
2018-Jan-11 18:55N 34°36' E 135°19'0 0.1
2018-Jan-11 18:28N 34°36' E 135°19'0 0.0
2018-Jan-11 17:58N 34°36' E 135°19'0 0.1
2018-Jan-11 17:28N 34°36' E 135°19'0 0.0
2018-Jan-11 16:55N 34°36' E 135°19'0 0.1
2018-Jan-11 16:25N 34°36' E 135°19'0 0.0
2018-Jan-11 15:55N 34°36' E 135°19'0 0.1
2018-Jan-11 15:25N 34°36' E 135°19'0 0.0
2018-Jan-11 14:58N 34°36' E 135°19'0 0.0
2018-Jan-11 14:28N 34°36' E 135°19'0 0.1
2018-Jan-11 13:55N 34°36' E 135°19'1 1.2
2018-Jan-11 13:30N 34°36' E 135°18'611.4
2018-Jan-11 13:00N 34°35' E 135°12'612.3
2018-Jan-11 12:30N 34°35' E 135°04'713.1
2018-Jan-11 12:00N 34°37' E 134°56'713.2
2018-Jan-11 11:30N 34°38' E 134°49'612.0
2018-Jan-11 11:00N 34°40' E 134°42'611.7
2018-Jan-11 10:30N 34°42' E 134°35'611.7
2018-Jan-11 10:00N 34°42' E 134°28'510.1
2018-Jan-11 09:30N 34°44' E 134°22'1 0.6
2018-Jan-11 07:58N 34°45' E 134°22'0 0.7
2018-Jan-11 07:27N 34°45' E 134°22'0 0.0
2018-Jan-11 06:22N 34°45' E 134°22'0 0.0
2018-Jan-11 05:52N 34°45' E 134°22'0 0.0
2018-Jan-11 03:10N 34°45' E 134°22'0 0.0
2018-Jan-11 01:43N 34°45' E 134°22'1 1.9
2018-Jan-11 01:24N 34°44' E 134°22'3 7.9
2018-Jan-11 00:58N 34°41' E 134°21'1312.8
2018-Jan-10 23:57N 34°32' E 134°09'9 0.3
2018-Jan-09 21:11N 34°27' E 134°01'4 9.2
2018-Jan-09 20:43N 34°30' E 134°04'410.0
2018-Jan-09 20:21N 34°32' E 134°08'1110.6
2018-Jan-09 19:21N 34°39' E 134°18'410.5
2018-Jan-09 19:00N 34°41' E 134°21'4 7.3
2018-Jan-09 18:30N 34°45' E 134°22'  

Dump ship's entire track history